Sepulveda, California
Current Conditions -  °F | °C
As of 4:53 PM on Monday 26 Jan 2015 (Local Time) from KBUR Reporting Station
Light Rain Light Rain  
Wind Chill: 17°   Ceiling: 7000
Heat Index: 17°   Visibility: 10mi
Dew Point:   Wind: 9mph
Humidity: 56%   Direction: 170°S
Pressure: 30.06"   Gusts: NA
Location:  34.1618°N, 118.281°W
Report Text: KBUR 270053Z 17008KT 10SM -RA OVC070 17/08 A3006 RMK AO2 RAB2354 SLP171 P0007 T01670078
Loading
Personal Weather Stations






























Interactive Weather Map New forecast layout! Learn more

10-Day Weather Forecast

Advertisements
Track Severe Weather on mobile